sensor_id;sensor_type;location;lat;lon;timestamp;pressure;altitude;pressure_sealevel;temperature;humidity
10587;BME280;5341;47.606;7.576;2022-08-11T00:01:51;98997.59;;;27.03;27.75
10587;BME280;5341;47.606;7.576;2022-08-11T00:04:23;98997.34;;;26.94;27.97
10587;BME280;5341;47.606;7.576;2022-08-11T00:06:52;98996.22;;;26.95;27.69
10587;BME280;5341;47.606;7.576;2022-08-11T00:09:21;98998.69;;;26.97;27.59
10587;BME280;5341;47.606;7.576;2022-08-11T00:11:51;98994.84;;;26.98;27.60
10587;BME280;5341;47.606;7.576;2022-08-11T00:14:21;98996.75;;;26.97;27.82
10587;BME280;5341;47.606;7.576;2022-08-11T00:16:54;98992.09;;;26.98;27.96
10587;BME280;5341;47.606;7.576;2022-08-11T00:19:25;98989.63;;;26.96;28.32
10587;BME280;5341;47.606;7.576;2022-08-11T00:21:54;98990.75;;;26.95;28.16
10587;BME280;5341;47.606;7.576;2022-08-11T00:24:23;98990.22;;;26.93;28.22
10587;BME280;5341;47.606;7.576;2022-08-11T00:26:52;98985.28;;;26.90;28.10
10587;BME280;5341;47.606;7.576;2022-08-11T00:29:21;98984.25;;;26.81;28.10
10587;BME280;5341;47.606;7.576;2022-08-11T00:31:51;98994.19;;;26.67;28.66
10587;BME280;5341;47.606;7.576;2022-08-11T00:34:24;98995.06;;;26.57;28.64
10587;BME280;5341;47.606;7.576;2022-08-11T00:36:54;98996.78;;;26.43;28.77
10587;BME280;5341;47.606;7.576;2022-08-11T00:39:22;98988.53;;;26.43;28.60
10587;BME280;5341;47.606;7.576;2022-08-11T00:42:09;98989.09;;;26.40;29.20
10587;BME280;5341;47.606;7.576;2022-08-11T00:44:47;98982.81;;;26.29;29.33
10587;BME280;5341;47.606;7.576;2022-08-11T00:47:26;98986.66;;;26.23;29.53
10587;BME280;5341;47.606;7.576;2022-08-11T00:50:12;98986.13;;;26.21;29.36
10587;BME280;5341;47.606;7.576;2022-08-11T00:53:07;98987.75;;;26.22;29.68
10587;BME280;5341;47.606;7.576;2022-08-11T00:59:25;98991.34;;;26.12;29.83
10587;BME280;5341;47.606;7.576;2022-08-11T01:02:11;98986.97;;;26.01;30.26
10587;BME280;5341;47.606;7.576;2022-08-11T01:05:15;98981.78;;;25.99;30.46
10587;BME280;5341;47.606;7.576;2022-08-11T01:08:32;98991.09;;;25.98;30.48
10587;BME280;5341;47.606;7.576;2022-08-11T01:11:46;98987.00;;;25.86;30.59
10587;BME280;5341;47.606;7.576;2022-08-11T01:14:45;98986.47;;;25.74;30.78
10587;BME280;5341;47.606;7.576;2022-08-11T01:17:51;98977.97;;;25.75;30.67
10587;BME280;5341;47.606;7.576;2022-08-11T01:20:52;98988.41;;;25.83;30.69
10587;BME280;5341;47.606;7.576;2022-08-11T01:33:17;98988.66;;;25.61;31.44
10587;BME280;5341;47.606;7.576;2022-08-11T01:45:41;98995.78;;;25.47;31.96
10587;BME280;5341;47.606;7.576;2022-08-11T01:48:18;99006.72;;;25.42;31.81
10587;BME280;5341;47.606;7.576;2022-08-11T01:54:02;99005.63;;;25.43;31.80
10587;BME280;5341;47.606;7.576;2022-08-11T01:56:51;98999.06;;;25.34;31.58
10587;BME280;5341;47.606;7.576;2022-08-11T01:59:26;98999.06;;;25.39;31.75
10587;BME280;5341;47.606;7.576;2022-08-11T02:05:19;99003.16;;;25.26;32.18
10587;BME280;5341;47.606;7.576;2022-08-11T02:07:55;98989.19;;;25.28;32.28
10587;BME280;5341;47.606;7.576;2022-08-11T02:10:28;98992.19;;;25.26;32.22
10587;BME280;5341;47.606;7.576;2022-08-11T02:13:21;98994.94;;;25.26;32.31
10587;BME280;5341;47.606;7.576;2022-08-11T02:16:01;99001.78;;;25.24;32.29
10587;BME280;5341;47.606;7.576;2022-08-11T02:18:33;98999.59;;;25.26;32.42
10587;BME280;5341;47.606;7.576;2022-08-11T02:21:26;98988.34;;;25.17;32.89
10587;BME280;5341;47.606;7.576;2022-08-11T02:24:16;98989.19;;;25.12;32.73
10587;BME280;5341;47.606;7.576;2022-08-11T02:26:49;98983.44;;;25.09;32.77
10587;BME280;5341;47.606;7.576;2022-08-11T02:29:28;98979.56;;;25.05;32.98
10587;BME280;5341;47.606;7.576;2022-08-11T02:32:07;98987.50;;;25.06;32.68
10587;BME280;5341;47.606;7.576;2022-08-11T02:35:09;98988.59;;;25.00;33.05
10587;BME280;5341;47.606;7.576;2022-08-11T02:37:47;98990.75;;;24.93;33.08
10587;BME280;5341;47.606;7.576;2022-08-11T02:40:23;98987.72;;;24.90;33.15
10587;BME280;5341;47.606;7.576;2022-08-11T02:43:01;98981.16;;;24.86;33.00
10587;BME280;5341;47.606;7.576;2022-08-11T02:45:36;98986.91;;;24.89;32.98
10587;BME280;5341;47.606;7.576;2022-08-11T02:48:14;98982.53;;;24.88;33.19
10587;BME280;5341;47.606;7.576;2022-08-11T02:51:18;98997.00;;;24.73;33.47
10587;BME280;5341;47.606;7.576;2022-08-11T02:53:58;99003.81;;;24.71;33.36
10587;BME280;5341;47.606;7.576;2022-08-11T02:56:38;98992.03;;;24.70;33.34
10587;BME280;5341;47.606;7.576;2022-08-11T02:59:25;99003.25;;;24.64;33.66
10587;BME280;5341;47.606;7.576;2022-08-11T03:02:16;98996.91;;;24.58;33.56
10587;BME280;5341;47.606;7.576;2022-08-11T03:05:00;98992.00;;;24.55;33.67
10587;BME280;5341;47.606;7.576;2022-08-11T03:07:38;98992.81;;;24.50;33.82
10587;BME280;5341;47.606;7.576;2022-08-11T03:10:20;98991.16;;;24.49;33.59
10587;BME280;5341;47.606;7.576;2022-08-11T03:12:53;98994.41;;;24.46;33.38
10587;BME280;5341;47.606;7.576;2022-08-11T03:15:46;98997.41;;;24.45;33.77
10587;BME280;5341;47.606;7.576;2022-08-11T03:18:40;98998.81;;;24.47;33.61
10587;BME280;5341;47.606;7.576;2022-08-11T03:21:16;98995.78;;;24.39;33.94
10587;BME280;5341;47.606;7.576;2022-08-11T03:23:55;98995.22;;;24.37;33.90
10587;BME280;5341;47.606;7.576;2022-08-11T03:26:31;98994.34;;;24.31;34.02
10587;BME280;5341;47.606;7.576;2022-08-11T03:29:05;98991.34;;;24.33;34.06
10587;BME280;5341;47.606;7.576;2022-08-11T03:31:43;98997.59;;;24.28;33.87
10587;BME280;5341;47.606;7.576;2022-08-11T03:34:16;98991.56;;;24.26;33.83
10587;BME280;5341;47.606;7.576;2022-08-11T03:37:25;98993.22;;;24.27;34.21
10587;BME280;5341;47.606;7.576;2022-08-11T03:43:32;98993.19;;;24.22;34.38
10587;BME280;5341;47.606;7.576;2022-08-11T03:46:09;98991.53;;;24.21;34.23
10587;BME280;5341;47.606;7.576;2022-08-11T03:48:45;98995.34;;;24.20;34.08
10587;BME280;5341;47.606;7.576;2022-08-11T03:51:18;98988.78;;;24.16;34.42
10587;BME280;5341;47.606;7.576;2022-08-11T03:54:06;98991.25;;;24.17;34.46
10587;BME280;5341;47.606;7.576;2022-08-11T03:57:04;98998.34;;;24.13;34.76
10587;BME280;5341;47.606;7.576;2022-08-11T04:00:18;98990.91;;;24.09;35.07
10587;BME280;5341;47.606;7.576;2022-08-11T04:06:23;99007.56;;;24.02;34.99
10587;BME280;5341;47.606;7.576;2022-08-11T04:09:39;99014.63;;;23.98;35.43
10587;BME280;5341;47.606;7.576;2022-08-11T04:12:45;99014.59;;;23.88;35.80
10587;BME280;5341;47.606;7.576;2022-08-11T04:15:36;99009.34;;;23.86;35.59
10587;BME280;5341;47.606;7.576;2022-08-11T04:19:14;99014.22;;;23.79;36.17
10587;BME280;5341;47.606;7.576;2022-08-11T04:28:05;99007.59;;;23.70;35.50
10587;BME280;5341;47.606;7.576;2022-08-11T04:31:14;99004.59;;;23.66;35.62
10587;BME280;5341;47.606;7.576;2022-08-11T04:34:23;99009.75;;;23.63;35.34
10587;BME280;5341;47.606;7.576;2022-08-11T04:37:10;99008.59;;;23.59;36.16
10587;BME280;5341;47.606;7.576;2022-08-11T04:40:27;99012.44;;;23.58;36.10
10587;BME280;5341;47.606;7.576;2022-08-11T04:43:38;99010.25;;;23.60;36.00
10587;BME280;5341;47.606;7.576;2022-08-11T04:46:43;99009.84;;;23.46;35.90
10587;BME280;5341;47.606;7.576;2022-08-11T04:52:51;99020.47;;;23.43;35.87
10587;BME280;5341;47.606;7.576;2022-08-11T04:56:00;99026.75;;;23.43;36.12
10587;BME280;5341;47.606;7.576;2022-08-11T04:59:00;99021.00;;;23.39;36.42
10587;BME280;5341;47.606;7.576;2022-08-11T05:05:18;99028.28;;;23.34;35.78
10587;BME280;5341;47.606;7.576;2022-08-11T05:11:52;99036.13;;;23.25;35.97
10587;BME280;5341;47.606;7.576;2022-08-11T05:14:31;99035.56;;;23.23;36.32
10587;BME280;5341;47.606;7.576;2022-08-11T05:17:36;99035.00;;;23.21;36.28
10587;BME280;5341;47.606;7.576;2022-08-11T05:20:24;99036.91;;;23.21;36.14
10587;BME280;5341;47.606;7.576;2022-08-11T05:23:11;99027.94;;;23.25;36.66
10587;BME280;5341;47.606;7.576;2022-08-11T05:25:59;99040.00;;;23.29;36.37
10587;BME280;5341;47.606;7.576;2022-08-11T05:28:51;99030.47;;;23.32;36.45
10587;BME280;5341;47.606;7.576;2022-08-11T05:31:38;99036.19;;;23.30;36.52
10587;BME280;5341;47.606;7.576;2022-08-11T05:34:27;99034.84;;;23.33;36.37
10587;BME280;5341;47.606;7.576;2022-08-11T05:37:19;99038.13;;;23.35;36.12
10587;BME280;5341;47.606;7.576;2022-08-11T05:39:54;99045.75;;;23.33;35.77
10587;BME280;5341;47.606;7.576;2022-08-11T05:42:43;99044.94;;;23.32;35.90
10587;BME280;5341;47.606;7.576;2022-08-11T05:45:33;99040.03;;;23.34;35.61
10587;BME280;5341;47.606;7.576;2022-08-11T05:48:18;99045.22;;;23.36;35.63
10587;BME280;5341;47.606;7.576;2022-08-11T05:51:04;99041.66;;;23.35;35.49
10587;BME280;5341;47.606;7.576;2022-08-11T05:53:55;99044.97;;;23.37;35.28
10587;BME280;5341;47.606;7.576;2022-08-11T05:56:42;99047.69;;;23.37;35.37
10587;BME280;5341;47.606;7.576;2022-08-11T05:59:13;99047.94;;;23.36;35.54
10587;BME280;5341;47.606;7.576;2022-08-11T06:01:41;99046.88;;;23.37;35.36
10587;BME280;5341;47.606;7.576;2022-08-11T06:04:15;99045.56;;;23.39;35.33
10587;BME280;5341;47.606;7.576;2022-08-11T06:06:49;99047.69;;;23.37;35.39
10587;BME280;5341;47.606;7.576;2022-08-11T06:09:33;99046.31;;;23.35;35.31
10587;BME280;5341;47.606;7.576;2022-08-11T06:12:05;99044.09;;;23.32;35.24
10587;BME280;5341;47.606;7.576;2022-08-11T06:14:41;99042.47;;;23.31;35.17
10587;BME280;5341;47.606;7.576;2022-08-11T06:17:10;99044.38;;;23.30;35.12
10587;BME280;5341;47.606;7.576;2022-08-11T06:19:40;99042.47;;;23.31;35.21
10587;BME280;5341;47.606;7.576;2022-08-11T06:22:10;99049.84;;;23.35;35.11
10587;BME280;5341;47.606;7.576;2022-08-11T06:24:41;99048.28;;;23.39;35.01
10587;BME280;5341;47.606;7.576;2022-08-11T06:27:18;99042.03;;;23.44;34.86
10587;BME280;5341;47.606;7.576;2022-08-11T06:29:49;99047.84;;;23.53;34.98
10587;BME280;5341;47.606;7.576;2022-08-11T06:32:17;99044.59;;;23.56;34.89
10587;BME280;5341;47.606;7.576;2022-08-11T06:34:57;99047.91;;;23.58;35.00
10587;BME280;5341;47.606;7.576;2022-08-11T06:37:39;99043.56;;;23.62;35.14
10587;BME280;5341;47.606;7.576;2022-08-11T06:40:21;99048.00;;;23.68;35.20
10587;BME280;5341;47.606;7.576;2022-08-11T06:42:56;99045.91;;;23.75;35.39
10587;BME280;5341;47.606;7.576;2022-08-11T06:45:30;99045.41;;;23.83;35.30
10587;BME280;5341;47.606;7.576;2022-08-11T06:48:00;99043.53;;;23.89;35.25
10587;BME280;5341;47.606;7.576;2022-08-11T06:50:31;99045.44;;;23.88;35.44
10587;BME280;5341;47.606;7.576;2022-08-11T06:53:18;99044.13;;;23.96;35.52
10587;BME280;5341;47.606;7.576;2022-08-11T06:55:49;99040.91;;;24.04;35.38
10587;BME280;5341;47.606;7.576;2022-08-11T06:58:36;99041.75;;;24.10;35.42
10587;BME280;5341;47.606;7.576;2022-08-11T07:01:31;99040.72;;;24.16;35.44
10587;BME280;5341;47.606;7.576;2022-08-11T07:04:05;99044.88;;;24.23;35.44
10587;BME280;5341;47.606;7.576;2022-08-11T07:07:12;99043.25;;;24.27;35.51
10587;BME280;5341;47.606;7.576;2022-08-11T07:10:26;99042.78;;;24.36;35.33
10587;BME280;5341;47.606;7.576;2022-08-11T07:13:21;99041.16;;;24.45;35.44
10587;BME280;5341;47.606;7.576;2022-08-11T07:16:07;99043.69;;;24.57;35.11
10587;BME280;5341;47.606;7.576;2022-08-11T07:18:37;99042.09;;;24.66;35.20
10587;BME280;5341;47.606;7.576;2022-08-11T07:21:28;99046.50;;;24.77;35.09
10587;BME280;5341;47.606;7.576;2022-08-11T07:24:16;99048.19;;;24.88;34.92
10587;BME280;5341;47.606;7.576;2022-08-11T07:27:05;99044.41;;;24.99;34.70
10587;BME280;5341;47.606;7.576;2022-08-11T07:29:54;99046.66;;;25.12;34.87
10587;BME280;5341;47.606;7.576;2022-08-11T07:32:27;99044.78;;;25.23;34.71
10587;BME280;5341;47.606;7.576;2022-08-11T07:35:02;99035.75;;;25.33;34.66
10587;BME280;5341;47.606;7.576;2022-08-11T07:37:35;99039.31;;;25.43;34.53
10587;BME280;5341;47.606;7.576;2022-08-11T07:40:03;99033.84;;;25.54;34.51
10587;BME280;5341;47.606;7.576;2022-08-11T07:42:33;99025.63;;;25.64;34.29
10587;BME280;5341;47.606;7.576;2022-08-11T07:45:04;99033.06;;;25.74;34.39
10587;BME280;5341;47.606;7.576;2022-08-11T07:47:52;99027.56;;;25.84;34.30
10587;BME280;5341;47.606;7.576;2022-08-11T07:50:40;99024.00;;;25.93;34.11
10587;BME280;5341;47.606;7.576;2022-08-11T07:53:26;99023.97;;;26.04;33.80
10587;BME280;5341;47.606;7.576;2022-08-11T07:55:57;99022.31;;;26.13;33.86
10587;BME280;5341;47.606;7.576;2022-08-11T07:58:27;99025.31;;;26.21;33.77
10587;BME280;5341;47.606;7.576;2022-08-11T08:01:19;99019.81;;;26.32;33.74
10587;BME280;5341;47.606;7.576;2022-08-11T08:04:06;99017.91;;;26.42;33.88
10587;BME280;5341;47.606;7.576;2022-08-11T08:06:52;99018.41;;;26.54;33.86
10587;BME280;5341;47.606;7.576;2022-08-11T08:09:39;99020.00;;;26.66;33.35
10587;BME280;5341;47.606;7.576;2022-08-11T08:12:26;99020.50;;;26.78;33.47
10587;BME280;5341;47.606;7.576;2022-08-11T08:15:13;99016.31;;;26.91;33.27
10587;BME280;5341;47.606;7.576;2022-08-11T08:18:02;99016.25;;;27.06;33.09
10587;BME280;5341;47.606;7.576;2022-08-11T08:20:33;99023.84;;;27.19;32.57
10587;BME280;5341;47.606;7.576;2022-08-11T08:23:03;99012.50;;;27.31;32.54
10587;BME280;5341;47.606;7.576;2022-08-11T08:25:33;99021.22;;;27.43;32.48
10587;BME280;5341;47.606;7.576;2022-08-11T08:28:05;99019.22;;;27.54;32.40
10587;BME280;5341;47.606;7.576;2022-08-11T08:30:34;99022.72;;;27.64;32.81
10587;BME280;5341;47.606;7.576;2022-08-11T08:33:19;99012.69;;;27.79;32.67
10587;BME280;5341;47.606;7.576;2022-08-11T08:35:49;99011.50;;;27.90;31.71
10587;BME280;5341;47.606;7.576;2022-08-11T08:38:37;99014.69;;;28.02;31.68
10587;BME280;5341;47.606;7.576;2022-08-11T08:41:06;99016.16;;;28.18;31.17
10587;BME280;5341;47.606;7.576;2022-08-11T08:43:35;99012.22;;;28.29;30.69
10587;BME280;5341;47.606;7.576;2022-08-11T08:46:08;99015.66;;;28.40;31.35
10587;BME280;5341;47.606;7.576;2022-08-11T08:48:37;99016.66;;;28.49;31.42
10587;BME280;5341;47.606;7.576;2022-08-11T08:51:09;99014.38;;;28.56;30.76
10587;BME280;5341;47.606;7.576;2022-08-11T08:54:02;99015.88;;;28.68;31.45
10587;BME280;5341;47.606;7.576;2022-08-11T08:56:31;99011.34;;;28.77;31.21
10587;BME280;5341;47.606;7.576;2022-08-11T08:59:01;99018.41;;;28.88;31.12
10587;BME280;5341;47.606;7.576;2022-08-11T09:01:32;99016.63;;;28.97;31.26
10587;BME280;5341;47.606;7.576;2022-08-11T09:04:06;99007.94;;;29.09;31.23
10587;BME280;5341;47.606;7.576;2022-08-11T09:06:36;99013.81;;;29.21;31.01
10587;BME280;5341;47.606;7.576;2022-08-11T09:09:08;99008.28;;;29.40;29.76
10587;BME280;5341;47.606;7.576;2022-08-11T09:11:37;99007.84;;;29.52;30.20
10587;BME280;5341;47.606;7.576;2022-08-11T09:14:20;99002.06;;;29.67;29.49
10587;BME280;5341;47.606;7.576;2022-08-11T09:16:49;99002.63;;;29.83;29.05
10587;BME280;5341;47.606;7.576;2022-08-11T09:19:19;99005.22;;;29.93;29.42
10587;BME280;5341;47.606;7.576;2022-08-11T09:21:48;99004.50;;;30.01;29.63
10587;BME280;5341;47.606;7.576;2022-08-11T09:24:37;98999.84;;;30.15;28.83
10587;BME280;5341;47.606;7.576;2022-08-11T09:27:23;99005.59;;;30.32;27.94
10587;BME280;5341;47.606;7.576;2022-08-11T09:29:53;98990.97;;;30.46;27.79
10587;BME280;5341;47.606;7.576;2022-08-11T09:32:21;98993.72;;;30.59;27.89
10587;BME280;5341;47.606;7.576;2022-08-11T09:34:51;98997.94;;;30.71;27.92
10587;BME280;5341;47.606;7.576;2022-08-11T09:37:20;98986.16;;;30.79;27.48
10587;BME280;5341;47.606;7.576;2022-08-11T09:40:07;98985.81;;;30.94;26.96
10587;BME280;5341;47.606;7.576;2022-08-11T09:42:54;98988.94;;;31.01;27.28
10587;BME280;5341;47.606;7.576;2022-08-11T09:45:50;98976.53;;;31.12;27.23
10587;BME280;5341;47.606;7.576;2022-08-11T09:48:18;98971.50;;;31.28;26.80
10587;BME280;5341;47.606;7.576;2022-08-11T09:50:49;98977.47;;;31.44;26.24
10587;BME280;5341;47.606;7.576;2022-08-11T09:53:18;98979.34;;;31.57;26.19
10587;BME280;5341;47.606;7.576;2022-08-11T09:55:47;98978.09;;;31.63;26.49
10587;BME280;5341;47.606;7.576;2022-08-11T09:58:16;98970.00;;;31.67;26.13
10587;BME280;5341;47.606;7.576;2022-08-11T10:00:47;98963.16;;;31.87;25.94
10587;BME280;5341;47.606;7.576;2022-08-11T10:03:16;98967.63;;;32.05;26.18
10587;BME280;5341;47.606;7.576;2022-08-11T10:05:46;98967.66;;;32.14;26.01
10587;BME280;5341;47.606;7.576;2022-08-11T10:08:35;98967.81;;;32.17;26.02
10587;BME280;5341;47.606;7.576;2022-08-11T10:11:05;98968.34;;;32.28;25.81
10587;BME280;5341;47.606;7.576;2022-08-11T10:13:42;98962.91;;;32.37;25.13
10587;BME280;5341;47.606;7.576;2022-08-11T10:16:28;98964.22;;;32.56;25.09
10587;BME280;5341;47.606;7.576;2022-08-11T10:18:58;98960.84;;;32.68;25.15
10587;BME280;5341;47.606;7.576;2022-08-11T10:21:41;98954.66;;;32.80;24.90
10587;BME280;5341;47.606;7.576;2022-08-11T10:24:32;98957.31;;;32.85;25.03
10587;BME280;5341;47.606;7.576;2022-08-11T10:27:17;98946.41;;;32.88;25.34
10587;BME280;5341;47.606;7.576;2022-08-11T10:29:49;98943.94;;;33.04;24.23
10587;BME280;5341;47.606;7.576;2022-08-11T10:32:36;98941.19;;;33.21;24.14
10587;BME280;5341;47.606;7.576;2022-08-11T10:35:22;98939.53;;;33.29;24.39
10587;BME280;5341;47.606;7.576;2022-08-11T10:37:52;98943.97;;;33.39;23.98
10587;BME280;5341;47.606;7.576;2022-08-11T10:40:22;98937.06;;;33.54;23.80
10587;BME280;5341;47.606;7.576;2022-08-11T10:42:56;98935.91;;;33.72;23.55
10587;BME280;5341;47.606;7.576;2022-08-11T10:45:29;98932.94;;;33.77;23.69
10587;BME280;5341;47.606;7.576;2022-08-11T10:48:16;98941.59;;;33.75;23.80
10587;BME280;5341;47.606;7.576;2022-08-11T10:50:47;98944.56;;;33.70;24.38
10587;BME280;5341;47.606;7.576;2022-08-11T10:53:33;98938.31;;;33.82;23.44
10587;BME280;5341;47.606;7.576;2022-08-11T10:56:20;98935.22;;;33.92;24.03
10587;BME280;5341;47.606;7.576;2022-08-11T10:59:07;98937.94;;;34.01;23.95
10587;BME280;5341;47.606;7.576;2022-08-11T11:01:39;98933.50;;;34.08;23.40
10587;BME280;5341;47.606;7.576;2022-08-11T11:04:12;98928.44;;;34.11;23.78
10587;BME280;5341;47.606;7.576;2022-08-11T11:06:49;98925.88;;;33.97;23.31
10587;BME280;5341;47.606;7.576;2022-08-11T11:09:20;98912.84;;;33.89;23.96
10587;BME280;5341;47.606;7.576;2022-08-11T11:11:57;98922.63;;;33.95;23.89
10587;BME280;5341;47.606;7.576;2022-08-11T11:14:43;98917.09;;;34.24;22.78
10587;BME280;5341;47.606;7.576;2022-08-11T11:17:32;98915.97;;;34.55;22.85
10587;BME280;5341;47.606;7.576;2022-08-11T11:20:25;98910.84;;;34.65;22.74
10587;BME280;5341;47.606;7.576;2022-08-11T11:23:00;98915.91;;;34.84;23.03
10587;BME280;5341;47.606;7.576;2022-08-11T11:25:48;98915.94;;;35.05;21.96
10587;BME280;5341;47.606;7.576;2022-08-11T11:28:51;98921.88;;;35.37;21.44
10587;BME280;5341;47.606;7.576;2022-08-11T11:31:30;98919.81;;;35.46;21.97
10587;BME280;5341;47.606;7.576;2022-08-11T11:34:16;98917.31;;;35.53;21.31
10587;BME280;5341;47.606;7.576;2022-08-11T11:36:49;98917.44;;;35.69;21.18
10587;BME280;5341;47.606;7.576;2022-08-11T11:39:20;98906.97;;;35.87;21.18
10587;BME280;5341;47.606;7.576;2022-08-11T11:41:50;98902.31;;;35.91;20.90
10587;BME280;5341;47.606;7.576;2022-08-11T11:44:20;98910.03;;;35.73;21.46
10587;BME280;5341;47.606;7.576;2022-08-11T11:46:50;98898.78;;;35.69;21.75
10587;BME280;5341;47.606;7.576;2022-08-11T11:49:19;98903.78;;;35.76;21.97
10587;BME280;5341;47.606;7.576;2022-08-11T11:51:49;98894.63;;;35.75;21.89
10587;BME280;5341;47.606;7.576;2022-08-11T11:54:22;98886.78;;;35.90;21.11
10587;BME280;5341;47.606;7.576;2022-08-11T11:56:52;98887.50;;;35.99;21.61
10587;BME280;5341;47.606;7.576;2022-08-11T11:59:24;98881.91;;;36.11;21.63
10587;BME280;5341;47.606;7.576;2022-08-11T12:02:12;98874.38;;;36.12;21.41
10587;BME280;5341;47.606;7.576;2022-08-11T12:04:43;98878.78;;;36.25;20.95
10587;BME280;5341;47.606;7.576;2022-08-11T12:07:12;98870.53;;;36.41;20.87
10587;BME280;5341;47.606;7.576;2022-08-11T12:09:58;98875.16;;;36.61;20.49
10587;BME280;5341;47.606;7.576;2022-08-11T12:12:26;98861.97;;;36.74;20.07
10587;BME280;5341;47.606;7.576;2022-08-11T12:15:12;98871.25;;;36.90;20.12
10587;BME280;5341;47.606;7.576;2022-08-11T12:17:43;98867.44;;;37.10;19.73
10587;BME280;5341;47.606;7.576;2022-08-11T12:20:15;98852.03;;;37.29;19.63
10587;BME280;5341;47.606;7.576;2022-08-11T12:22:44;98860.97;;;37.34;20.37
10587;BME280;5341;47.606;7.576;2022-08-11T12:25:29;98843.50;;;37.37;19.64
10587;BME280;5341;47.606;7.576;2022-08-11T12:28:14;98842.44;;;37.58;19.20
10587;BME280;5341;47.606;7.576;2022-08-11T12:30:43;98835.41;;;37.64;18.93
10587;BME280;5341;47.606;7.576;2022-08-11T12:33:13;98827.91;;;37.68;18.71
10587;BME280;5341;47.606;7.576;2022-08-11T12:35:42;98838.81;;;37.73;19.51
10587;BME280;5341;47.606;7.576;2022-08-11T12:38:12;98828.59;;;37.77;19.44
10587;BME280;5341;47.606;7.576;2022-08-11T12:40:41;98828.94;;;37.75;19.98
10587;BME280;5341;47.606;7.576;2022-08-11T12:43:29;98818.72;;;37.67;20.30
10587;BME280;5341;47.606;7.576;2022-08-11T12:46:19;98827.56;;;37.53;20.23
10587;BME280;5341;47.606;7.576;2022-08-11T12:48:54;98815.78;;;37.44;19.84
10587;BME280;5341;47.606;7.576;2022-08-11T12:51:49;98811.47;;;37.19;20.43
10587;BME280;5341;47.606;7.576;2022-08-11T12:54:31;98798.69;;;37.02;21.00
10587;BME280;5341;47.606;7.576;2022-08-11T12:57:05;98793.56;;;37.04;20.19
10587;BME280;5341;47.606;7.576;2022-08-11T12:59:50;98795.00;;;37.58;19.60
10587;BME280;5341;47.606;7.576;2022-08-11T13:02:39;98792.38;;;37.65;19.56
10587;BME280;5341;47.606;7.576;2022-08-11T13:05:24;98798.56;;;37.90;19.97
10587;BME280;5341;47.606;7.576;2022-08-11T13:07:52;98787.06;;;37.75;19.51
10587;BME280;5341;47.606;7.576;2022-08-11T13:10:20;98794.53;;;37.55;19.76
10587;BME280;5341;47.606;7.576;2022-08-11T13:13:02;98786.72;;;37.45;20.45
10587;BME280;5341;47.606;7.576;2022-08-11T13:15:30;98782.13;;;37.37;20.16
10587;BME280;5341;47.606;7.576;2022-08-11T13:18:00;98781.59;;;37.47;20.65
10587;BME280;5341;47.606;7.576;2022-08-11T13:20:28;98776.88;;;37.51;20.90
10587;BME280;5341;47.606;7.576;2022-08-11T13:22:57;98773.09;;;37.60;20.33
10587;BME280;5341;47.606;7.576;2022-08-11T13:25:29;98774.47;;;37.50;19.75
10587;BME280;5341;47.606;7.576;2022-08-11T13:27:58;98767.63;;;37.32;19.56
10587;BME280;5341;47.606;7.576;2022-08-11T13:30:29;98761.13;;;37.59;19.43
10587;BME280;5341;47.606;7.576;2022-08-11T13:33:17;98756.06;;;38.16;19.40
10587;BME280;5341;47.606;7.576;2022-08-11T13:35:46;98752.59;;;38.38;19.40
10587;BME280;5341;47.606;7.576;2022-08-11T13:38:15;98757.31;;;38.73;18.72
10587;BME280;5341;47.606;7.576;2022-08-11T13:40:45;98755.44;;;38.99;17.72
10587;BME280;5341;47.606;7.576;2022-08-11T13:43:13;98754.44;;;39.31;17.77
10587;BME280;5341;47.606;7.576;2022-08-11T13:45:41;98749.50;;;39.47;17.49
10587;BME280;5341;47.606;7.576;2022-08-11T13:48:12;98756.47;;;39.34;18.39
10587;BME280;5341;47.606;7.576;2022-08-11T13:50:43;98744.47;;;39.10;18.35
10587;BME280;5341;47.606;7.576;2022-08-11T13:53:29;98743.16;;;38.85;18.56
10587;BME280;5341;47.606;7.576;2022-08-11T13:55:58;98736.50;;;38.70;18.97
10587;BME280;5341;47.606;7.576;2022-08-11T13:58:26;98733.88;;;38.77;18.89
10587;BME280;5341;47.606;7.576;2022-08-11T14:00:56;98738.66;;;38.99;18.53
10587;BME280;5341;47.606;7.576;2022-08-11T14:03:26;98732.19;;;39.15;18.11
10587;BME280;5341;47.606;7.576;2022-08-11T14:05:57;98732.19;;;39.15;18.37
10587;BME280;5341;47.606;7.576;2022-08-11T14:08:28;98726.28;;;39.01;17.86
10587;BME280;5341;47.606;7.576;2022-08-11T14:11:01;98725.66;;;38.88;17.70
10587;BME280;5341;47.606;7.576;2022-08-11T14:13:48;98730.63;;;39.17;16.57
10587;BME280;5341;47.606;7.576;2022-08-11T14:16:21;98720.13;;;39.37;15.91
10587;BME280;5341;47.606;7.576;2022-08-11T14:18:53;98721.56;;;39.50;16.28
10587;BME280;5341;47.606;7.576;2022-08-11T14:21:23;98727.28;;;39.58;15.93
10587;BME280;5341;47.606;7.576;2022-08-11T14:24:09;98717.44;;;39.67;16.12
10587;BME280;5341;47.606;7.576;2022-08-11T14:26:37;98711.22;;;39.77;15.64
10587;BME280;5341;47.606;7.576;2022-08-11T14:29:10;98716.09;;;39.84;15.34
10587;BME280;5341;47.606;7.576;2022-08-11T14:31:43;98724.41;;;39.77;16.45
10587;BME280;5341;47.606;7.576;2022-08-11T14:34:12;98715.00;;;39.62;17.17
10587;BME280;5341;47.606;7.576;2022-08-11T14:36:44;98711.53;;;39.49;17.28
10587;BME280;5341;47.606;7.576;2022-08-11T14:39:15;98715.03;;;39.43;17.30
10587;BME280;5341;47.606;7.576;2022-08-11T14:41:46;98703.13;;;39.49;16.59
10587;BME280;5341;47.606;7.576;2022-08-11T14:44:34;98699.19;;;39.50;17.29
10587;BME280;5341;47.606;7.576;2022-08-11T14:47:20;98694.25;;;39.44;17.14
10587;BME280;5341;47.606;7.576;2022-08-11T14:49:49;98699.75;;;39.37;17.96
10587;BME280;5341;47.606;7.576;2022-08-11T14:52:19;98693.25;;;39.29;17.89
10587;BME280;5341;47.606;7.576;2022-08-11T14:54:49;98695.84;;;39.18;17.82
10587;BME280;5341;47.606;7.576;2022-08-11T14:57:37;98694.63;;;39.16;17.83
10587;BME280;5341;47.606;7.576;2022-08-11T15:00:07;98693.91;;;39.22;17.53
10587;BME280;5341;47.606;7.576;2022-08-11T15:02:39;98687.81;;;39.40;16.93
10587;BME280;5341;47.606;7.576;2022-08-11T15:05:25;98693.13;;;39.48;17.58
10587;BME280;5341;47.606;7.576;2022-08-11T15:07:56;98687.69;;;39.55;17.47
10587;BME280;5341;47.606;7.576;2022-08-11T15:10:24;98685.13;;;39.73;16.33